Time;durP1;ratioP1;P1;durP2;ratioP2;P2;SDS_P1;SDS_P2;PMS_P1;PMS_P2;Temp;Humidity;BMP_temperature;BMP_pressure;BME280_temperature;BME280_humidity;BME280_pressure;Samples;Min_cycle;Max_cycle;Signal;HPM_P1;HPM_P2
2021/03/23 11:52:42;;;;;;;1.35;1.27;;;19.70;53.30;;;;;;5108486;27;683419;-55
2021/03/23 11:55:10;;;;;;;1.27;1.15;;;19.70;54.80;;;;;;5110746;28;20024;-58
2021/03/23 11:57:36;;;;;;;1.83;1.48;;;19.90;55.20;;;;;;5109991;28;20031;-59
2021/03/23 12:17:10;;;;;;;7.72;5.65;;;20.10;53.20;;;;;;5088828;27;20438;-72
2021/03/23 12:19:43;;;;;;;6.45;5.03;;;19.10;54.30;;;;;;5088569;28;20036;-72
2021/03/23 12:22:11;;;;;;;6.80;4.88;;;17.60;57.20;;;;;;5088540;28;20028;-72
2021/03/23 12:24:37;;;;;;;6.47;4.07;;;16.10;59.50;;;;;;5089714;28;20033;-73
2021/03/23 12:27:04;;;;;;;5.82;4.00;;;15.00;61.40;;;;;;5089106;28;20070;-73
2021/03/23 12:29:29;;;;;;;6.18;4.30;;;14.10;62.60;;;;;;5089576;28;20036;-73
2021/03/23 12:31:55;;;;;;;7.85;5.43;;;13.50;63.00;;;;;;5089178;28;20024;-73
2021/03/23 12:34:21;;;;;;;11.05;7.93;;;13.00;63.30;;;;;;5088652;28;20020;-73
2021/03/23 12:36:47;;;;;;;8.02;4.30;;;12.50;63.50;;;;;;5089561;28;20427;-73
2021/03/23 12:39:16;;;;;;;6.30;4.45;;;12.00;64.00;;;;;;5089396;28;20028;-73
2021/03/23 12:41:42;;;;;;;6.10;4.50;;;11.70;63.90;;;;;;5088975;28;20023;-73
2021/03/23 12:44:07;;;;;;;7.22;4.50;;;11.70;63.50;;;;;;5088116;28;20025;-73
2021/03/23 12:46:34;;;;;;;6.82;4.57;;;11.60;62.90;;;;;;5089398;28;20056;-73
2021/03/23 12:49:00;;;;;;;6.93;4.88;;;11.60;62.60;;;;;;5089264;28;20031;-73
2021/03/23 12:51:47;;;;;;;7.65;5.65;;;11.40;62.40;;;;;;5089301;28;20020;-73
2021/03/23 12:54:34;;;;;;;10.27;6.35;;;11.30;62.30;;;;;;5087964;28;20021;-74
2021/03/23 12:57:01;;;;;;;8.45;5.00;;;11.10;62.50;;;;;;5088719;28;20181;-73
2021/03/23 12:59:28;;;;;;;8.05;5.40;;;11.00;62.40;;;;;;5088373;28;20391;-73
2021/03/23 13:01:55;;;;;;;7.43;4.53;;;11.00;62.40;;;;;;5088630;28;20032;-73
2021/03/23 13:04:26;;;;;;;7.00;5.03;;;11.10;62.10;;;;;;5087801;28;20112;-73
2021/03/23 13:06:55;;;;;;;9.30;5.93;;;11.10;62.00;;;;;;5088940;28;20031;-73
2021/03/23 13:09:21;;;;;;;6.60;4.68;;;11.00;62.00;;;;;;5088542;28;20114;-73
2021/03/23 13:11:49;;;;;;;9.00;5.22;;;10.90;62.10;;;;;;5088905;28;20458;-73
2021/03/23 13:14:24;;;;;;;8.13;4.88;;;10.90;62.10;;;;;;5088902;28;20028;-72
2021/03/23 13:16:51;;;;;;;8.25;5.20;;;11.00;61.90;;;;;;5088799;28;20082;-73
2021/03/23 13:19:16;;;;;;;9.27;6.72;;;11.00;61.80;;;;;;5088751;28;20123;-72
2021/03/23 13:21:54;;;;;;;8.35;5.18;;;11.00;61.90;;;;;;5088663;28;20027;-73
2021/03/23 13:24:35;;;;;;;10.20;6.28;;;11.00;62.10;;;;;;5088221;28;20111;-73
2021/03/23 13:27:20;;;;;;;7.97;4.55;;;10.90;62.10;;;;;;5081565;28;20025;-73
2021/03/23 13:29:47;;;;;;;6.93;4.68;;;10.90;62.20;;;;;;5075129;28;20060;-72
2021/03/23 13:32:13;;;;;;;6.35;4.07;;;10.80;62.30;;;;;;5074999;28;20039;-73
2021/03/23 13:34:38;;;;;;;7.35;4.80;;;10.70;62.40;;;;;;5074926;28;20025;-73
2021/03/23 13:37:09;;;;;;;6.53;4.30;;;10.80;62.50;;;;;;5074788;28;20036;-72
2021/03/23 13:39:41;;;;;;;6.95;4.68;;;10.80;62.50;;;;;;5074397;28;20472;-72
2021/03/23 13:42:23;;;;;;;10.10;4.97;;;10.90;62.30;;;;;;5074897;28;20033;-72
2021/03/23 13:44:50;;;;;;;9.85;6.22;;;11.10;62.10;;;;;;5072873;28;20073;-72
2021/03/23 13:47:21;;;;;;;11.20;6.13;;;11.10;62.00;;;;;;5074539;28;20048;-72
2021/03/23 13:49:48;;;;;;;7.78;5.00;;;11.10;62.20;;;;;;5074867;28;20016;-72
2021/03/23 13:52:24;;;;;;;10.48;6.47;;;11.10;62.30;;;;;;5073412;28;20025;-72
2021/03/23 13:54:50;;;;;;;10.35;6.18;;;11.00;62.50;;;;;;5074205;28;20212;-72
2021/03/23 13:57:17;;;;;;;10.95;6.57;;;11.00;62.50;;;;;;5074224;28;20500;-72
2021/03/23 13:59:42;;;;;;;8.68;5.55;;;10.90;62.70;;;;;;5074484;28;20034;-73
2021/03/23 14:02:13;;;;;;;10.98;6.50;;;10.80;62.90;;;;;;5074384;28;20095;-72
2021/03/23 14:04:39;;;;;;;6.90;5.05;;;10.90;63.00;;;;;;5074492;28;20059;-72
2021/03/23 14:07:05;;;;;;;9.88;6.70;;;11.00;62.90;;;;;;5073882;28;20052;-73
2021/03/23 14:09:51;;;;;;;6.82;4.80;;;11.10;62.70;;;;;;5074155;28;20437;-72
2021/03/23 14:12:24;;;;;;;8.75;5.60;;;11.20;62.50;;;;;;5072432;28;20458;-72
2021/03/23 14:14:50;;;;;;;6.60;4.72;;;11.20;62.70;;;;;;5073989;28;20052;-72
2021/03/23 14:17:19;;;;;;;7.03;4.35;;;11.10;62.70;;;;;;5074001;28;20028;-72
2021/03/23 14:19:45;;;;;;;8.40;5.50;;;11.10;62.90;;;;;;5074028;28;20032;-74
2021/03/23 14:22:12;;;;;;;8.38;5.22;;;11.10;62.90;;;;;;5072197;28;20017;-74
2021/03/23 14:24:38;;;;;;;8.30;5.80;;;11.10;63.10;;;;;;5072678;28;20115;-72
2021/03/23 14:27:06;;;;;;;8.18;4.30;;;11.00;63.20;;;;;;5073712;28;20020;-71
2021/03/23 14:29:31;;;;;;;7.53;4.63;;;10.90;63.50;;;;;;5072642;28;20025;-72
2021/03/23 14:31:57;;;;;;;9.30;4.90;;;10.90;63.50;;;;;;5072477;28;20469;-71
2021/03/23 14:34:23;;;;;;;6.68;3.88;;;10.90;63.50;;;;;;5073772;28;20028;-72
2021/03/23 14:36:49;;;;;;;6.13;4.18;;;10.90;63.60;;;;;;5071984;28;20111;-72
2021/03/23 14:39:23;;;;;;;6.53;4.57;;;11.00;63.50;;;;;;5072848;28;20028;-72
2021/03/23 14:41:49;;;;;;;10.43;7.72;;;11.00;63.30;;;;;;5073638;28;20020;-71
2021/03/23 14:44:16;;;;;;;7.95;5.18;;;11.00;63.50;;;;;;5073547;28;20485;-72
2021/03/23 14:46:42;;;;;;;8.05;5.78;;;10.90;63.50;;;;;;5073526;28;20407;-72
2021/03/23 14:49:07;;;;;;;7.00;4.65;;;10.90;63.70;;;;;;5073411;28;20028;-71
2021/03/23 14:51:38;;;;;;;7.75;4.78;;;10.90;63.80;;;;;;5073165;28;20028;-72
2021/03/23 14:54:12;;;;;;;8.25;5.60;;;10.90;63.70;;;;;;5073426;28;20020;-72
2021/03/23 14:56:39;;;;;;;7.55;4.80;;;10.90;63.80;;;;;;5073305;28;20037;-72
2021/03/23 14:59:06;;;;;;;8.05;5.32;;;10.80;63.90;;;;;;5073173;28;20078;-72
2021/03/23 15:01:33;;;;;;;7.22;5.72;;;10.80;64.00;;;;;;5068451;28;20429;-71
2021/03/23 15:03:59;;;;;;;7.45;5.05;;;10.70;64.20;;;;;;5072498;28;20469;-72
2021/03/23 15:06:27;;;;;;;7.63;5.68;;;10.70;64.30;;;;;;5073687;28;20086;-72
2021/03/23 15:08:56;;;;;;;6.65;4.85;;;10.60;64.40;;;;;;5074138;28;20016;-72
2021/03/23 15:11:23;;;;;;;;;;;10.60;64.40;;;;;;5074420;28;20028;-72
2021/03/23 15:13:49;;;;;;;7.60;4.55;;;10.50;64.30;;;;;;5073856;28;19908;-73
2021/03/23 15:16:16;;;;;;;7.72;5.43;;;10.50;64.30;;;;;;5073596;28;20515;-72
2021/03/23 15:18:43;;;;;;;7.85;4.68;;;10.60;64.30;;;;;;5073601;28;20025;-72
2021/03/23 15:21:15;;;;;;;6.80;4.28;;;10.60;64.20;;;;;;5073562;28;20035;-71
2021/03/23 15:23:46;;;;;;;6.55;4.35;;;10.60;64.20;;;;;;5073669;28;20459;-72
2021/03/23 15:26:29;;;;;;;7.43;4.63;;;10.60;64.20;;;;;;5074041;28;20099;-72
2021/03/23 15:29:00;;;;;;;5.20;3.90;;;10.60;64.90;;;;;;5073772;28;20099;-72
2021/03/23 15:31:26;;;;;;;6.20;4.20;;;10.60;64.30;;;;;;5072130;28;20029;-72
2021/03/23 15:33:52;;;;;;;5.57;4.05;;;10.60;64.30;;;;;;5073492;28;20027;-72
2021/03/23 15:36:25;;;;;;;7.03;4.78;;;10.60;64.30;;;;;;5072887;28;20033;-72
2021/03/23 15:38:51;;;;;;;5.88;3.70;;;10.60;64.20;;;;;;5073279;28;20030;-72
2021/03/23 15:41:17;;;;;;;6.35;3.80;;;10.60;64.20;;;;;;5073228;28;20440;-71
2021/03/23 15:43:42;;;;;;;7.07;4.40;;;10.70;64.80;;;;;;5073245;28;20021;-71
2021/03/23 15:46:08;;;;;;;7.50;4.47;;;10.70;64.10;;;;;;5073274;28;20028;-72
2021/03/23 15:48:33;;;;;;;5.78;4.35;;;10.80;64.00;;;;;;5071861;28;20070;-72
2021/03/23 15:51:00;;;;;;;5.63;4.07;;;11.00;63.90;;;;;;5071645;28;20482;-72
2021/03/23 15:53:39;;;;;;;6.65;4.72;;;11.10;63.60;;;;;;5071831;28;20050;-71
2021/03/23 15:56:07;;;;;;;9.15;5.95;;;11.00;63.70;;;;;;5073147;28;20033;-71
2021/03/23 15:58:33;;;;;;;6.55;3.75;;;10.90;64.10;;;;;;5073523;28;20026;-71
2021/03/23 16:00:59;;;;;;;7.28;4.70;;;10.90;64.10;;;;;;5072859;28;20477;-72
2021/03/23 16:03:25;;;;;;;5.88;3.80;;;11.00;64.10;;;;;;5072918;28;20024;-73
2021/03/23 16:05:51;;;;;;;7.00;4.43;;;11.00;64.10;;;;;;5072881;28;20104;-73
2021/03/23 16:08:31;;;;;;;6.25;4.10;;;10.90;64.10;;;;;;5071794;28;20098;-70
2021/03/23 16:10:58;;;;;;;5.32;3.97;;;11.00;64.80;;;;;;5072884;28;20480;-72
2021/03/23 16:13:24;;;;;;;6.25;4.40;;;11.00;64.10;;;;;;5072848;28;20485;-72
2021/03/23 16:15:50;;;;;;;6.32;4.93;;;11.00;64.10;;;;;;5072849;28;20049;-71
2021/03/23 16:18:16;;;;;;;6.75;4.88;;;11.00;64.00;;;;;;5072822;28;20073;-71
2021/03/23 16:20:42;;;;;;;6.18;4.10;;;10.90;64.10;;;;;;5073092;28;20016;-71
2021/03/23 16:23:28;;;;;;;6.50;4.63;;;10.80;64.30;;;;;;5072884;28;20106;-71
2021/03/23 16:25:54;;;;;;;5.40;4.25;;;10.80;64.40;;;;;;5071675;28;20020;-71
2021/03/23 16:28:34;;;;;;;5.80;3.90;;;10.70;64.30;;;;;;5073329;28;20020;-72
2021/03/23 16:31:00;;;;;;;4.57;3.47;;;10.80;64.30;;;;;;5072873;28;20063;-72
2021/03/23 16:33:28;;;;;;;6.43;4.43;;;10.80;64.30;;;;;;5072634;28;20073;-71
2021/03/23 16:35:54;;;;;;;5.05;4.20;;;10.80;64.20;;;;;;5072337;28;20097;-72
2021/03/23 16:38:25;;;;;;;4.93;3.45;;;10.90;64.10;;;;;;5072739;28;20612;-70
2021/03/23 16:40:51;;;;;;;4.50;3.58;;;10.90;64.10;;;;;;5072749;28;20127;-70
2021/03/23 16:43:24;;;;;;;5.30;3.13;;;10.90;64.10;;;;;;5072706;28;20045;-71
2021/03/23 16:45:50;;;;;;;4.45;3.03;;;10.90;64.10;;;;;;5071439;28;20028;-71
2021/03/23 16:48:17;;;;;;;5.03;3.78;;;10.90;64.00;;;;;;5072627;28;20413;-71
2021/03/23 16:50:44;;;;;;;3.95;2.83;;;11.00;63.90;;;;;;5073188;28;20017;-71
2021/03/23 16:53:14;;;;;;;5.70;3.35;;;11.00;63.80;;;;;;5071369;28;20401;-70
2021/03/23 16:55:39;;;;;;;4.18;3.13;;;11.00;63.90;;;;;;5072798;28;20473;-71
2021/03/23 16:58:05;;;;;;;5.10;3.38;;;11.00;63.90;;;;;;5072579;28;20028;-72
2021/03/23 17:00:37;;;;;;;6.13;3.63;;;10.80;64.10;;;;;;5072567;28;20053;-71
2021/03/23 17:03:06;;;;;;;3.70;2.70;;;10.90;64.30;;;;;;5075334;28;20055;-71
2021/03/23 17:05:31;;;;;;;3.63;2.50;;;10.90;64.30;;;;;;5076690;28;20017;-72
2021/03/23 17:07:57;;;;;;;4.57;3.40;;;10.90;64.20;;;;;;5076180;28;20492;-72
2021/03/23 17:10:25;;;;;;;4.47;3.30;;;10.90;64.10;;;;;;5076156;28;20031;-71
2021/03/23 17:12:52;;;;;;;3.80;3.00;;;10.90;64.00;;;;;;5076128;28;20051;-72
2021/03/23 17:15:18;;;;;;;5.88;3.75;;;10.80;64.10;;;;;;5075751;28;20123;-71
2021/03/23 17:17:44;;;;;;;4.50;3.20;;;10.80;64.30;;;;;;5075956;28;20492;-71
2021/03/23 17:20:22;;;;;;;4.90;3.63;;;10.70;64.40;;;;;;5074698;28;20024;-72
2021/03/23 17:22:49;;;;;;;4.53;3.65;;;10.60;64.50;;;;;;5075959;28;20028;-72
2021/03/23 17:25:18;;;;;;;4.05;3.00;;;10.60;64.50;;;;;;5075895;28;20028;-72
2021/03/23 17:27:43;;;;;;;4.13;3.40;;;10.60;64.50;;;;;;5075831;28;20024;-71
2021/03/23 17:30:11;;;;;;;4.70;2.85;;;10.60;64.40;;;;;;5076232;28;20020;-71
2021/03/23 17:32:36;;;;;;;3.30;2.67;;;10.60;64.50;;;;;;5075672;28;20094;-72
2021/03/23 17:35:03;;;;;;;3.88;2.65;;;10.50;64.50;;;;;;5075863;28;20468;-70
2021/03/23 17:37:28;;;;;;;4.90;2.85;;;10.40;64.60;;;;;;5075604;28;20031;-72
2021/03/23 17:39:54;;;;;;;4.40;3.60;;;10.40;64.70;;;;;;5075596;28;20025;-72
2021/03/23 17:42:19;;;;;;;4.13;2.45;;;10.40;64.70;;;;;;5075588;28;20073;-72
2021/03/23 17:44:47;;;;;;;4.15;2.92;;;10.40;64.80;;;;;;5075444;28;20024;-73
2021/03/23 17:47:13;;;;;;;3.42;2.60;;;10.30;64.70;;;;;;5075515;28;20008;-73
2021/03/23 17:49:39;;;;;;;4.18;3.47;;;10.30;64.70;;;;;;5075683;28;20071;-73
2021/03/23 17:52:06;;;;;;;3.30;2.42;;;10.30;64.70;;;;;;5074244;28;20488;-73
2021/03/23 17:54:31;;;;;;;2.90;2.50;;;10.30;64.70;;;;;;5073996;28;20064;-73
2021/03/23 17:56:57;;;;;;;4.55;3.03;;;10.30;64.70;;;;;;5075813;28;20080;-73
2021/03/23 17:59:22;;;;;;;4.85;3.50;;;10.30;64.70;;;;;;5075182;28;20472;-73
2021/03/23 18:01:48;;;;;;;4.68;3.15;;;10.30;64.80;;;;;;5075176;28;20051;-72
2021/03/23 18:04:13;;;;;;;4.00;2.80;;;10.30;64.80;;;;;;5075255;28;20434;-73
2021/03/23 18:06:39;;;;;;;3.70;2.72;;;10.30;64.90;;;;;;5075059;28;20046;-73
2021/03/23 18:09:04;;;;;;;4.10;2.65;;;10.20;64.80;;;;;;5075534;28;20365;-73
2021/03/23 18:11:30;;;;;;;4.22;3.03;;;10.20;64.80;;;;;;5074986;28;20183;-72
2021/03/23 18:13:55;;;;;;;4.45;3.45;;;10.20;64.90;;;;;;5073411;28;20129;-72
2021/03/23 18:16:22;;;;;;;4.63;2.97;;;10.20;64.90;;;;;;5074602;28;20084;-72
2021/03/23 18:18:48;;;;;;;4.82;3.55;;;10.20;65.10;;;;;;5075431;28;20051;-73
2021/03/23 18:21:13;;;;;;;4.97;3.53;;;10.20;65.10;;;;;;5074844;28;20024;-73
2021/03/23 18:23:39;;;;;;;4.75;3.65;;;10.20;65.10;;;;;;5075016;28;20481;-73
2021/03/23 18:26:05;;;;;;;3.92;3.25;;;10.10;65.10;;;;;;5075004;28;20377;-72
2021/03/23 18:28:30;;;;;;;4.75;3.22;;;10.10;65.20;;;;;;5073345;28;20040;-73
2021/03/23 18:30:56;;;;;;;3.63;2.85;;;10.10;65.20;;;;;;5073344;28;20033;-73
2021/03/23 18:33:26;;;;;;;4.82;3.65;;;10.20;65.20;;;;;;5073245;28;20017;-73
2021/03/23 18:35:52;;;;;;;4.18;2.97;;;10.20;65.20;;;;;;5074535;28;20039;-73
2021/03/23 18:38:24;;;;;;;4.43;2.80;;;10.20;65.20;;;;;;5073226;28;20507;-73
2021/03/23 18:40:50;;;;;;;4.30;3.28;;;10.10;65.30;;;;;;5074511;28;20511;-73
2021/03/23 18:43:16;;;;;;;4.28;3.00;;;10.10;65.40;;;;;;5074369;28;20477;-73
2021/03/23 18:45:44;;;;;;;6.05;3.35;;;10.10;65.50;;;;;;5074880;28;20027;-73
2021/03/23 18:48:11;;;;;;;4.65;3.50;;;10.10;65.50;;;;;;5074312;28;20048;-73
2021/03/23 18:50:38;;;;;;;5.20;3.35;;;10.00;65.60;;;;;;5074231;28;20028;-72
2021/03/23 18:53:04;;;;;;;4.55;3.17;;;9.90;65.70;;;;;;5074223;28;20116;-72
2021/03/23 18:55:33;;;;;;;4.85;4.03;;;9.90;65.90;;;;;;5072818;28;20033;-73
2021/03/23 18:58:00;;;;;;;3.78;2.72;;;9.80;66.10;;;;;;5072764;28;20415;-71
2021/03/23 19:00:26;;;;;;;3.97;2.97;;;9.60;66.20;;;;;;5074074;28;20444;-71
2021/03/23 19:02:53;;;;;;;3.45;2.67;;;9.60;66.40;;;;;;5073940;28;20031;-70
2021/03/23 19:05:21;;;;;;;5.20;3.63;;;9.50;66.50;;;;;;5073941;28;20032;-71
2021/03/23 19:07:46;;;;;;;4.63;3.90;;;9.40;66.70;;;;;;5073901;28;20465;-70
2021/03/23 19:10:14;;;;;;;4.88;3.20;;;9.20;66.90;;;;;;5073794;28;20047;-71
2021/03/23 19:12:40;;;;;;;4.50;3.17;;;9.10;67.10;;;;;;5072475;28;20023;-70
2021/03/23 19:15:08;;;;;;;4.38;2.72;;;9.00;67.40;;;;;;5072150;28;20137;-70
2021/03/23 19:17:33;;;;;;;3.83;2.72;;;8.90;67.40;;;;;;5074234;28;20020;-71
2021/03/23 19:19:59;;;;;;;5.57;2.97;;;8.80;67.50;;;;;;5072313;28;20055;-71
2021/03/23 19:22:24;;;;;;;4.53;3.17;;;8.70;67.50;;;;;;5073559;28;20025;-71
2021/03/23 19:24:50;;;;;;;6.45;4.68;;;8.60;67.70;;;;;;5071735;28;20036;-71
2021/03/23 19:27:16;;;;;;;6.00;4.05;;;8.60;67.70;;;;;;5072094;28;20021;-71
2021/03/23 19:29:42;;;;;;;5.72;3.67;;;8.60;67.60;;;;;;5073410;28;20028;-71
2021/03/23 19:32:10;;;;;;;5.22;3.25;;;8.60;67.60;;;;;;5072047;28;20028;-71
2021/03/23 19:34:36;;;;;;;4.80;3.73;;;8.60;68.30;;;;;;5073322;28;20025;-71
2021/03/23 19:37:01;;;;;;;6.18;3.92;;;8.50;67.50;;;;;;5073326;28;20282;-71
2021/03/23 19:39:27;;;;;;;4.93;3.22;;;8.60;67.50;;;;;;5073327;28;20427;-71
2021/03/23 19:41:52;;;;;;;4.40;2.85;;;8.60;67.40;;;;;;5071879;28;20090;-72
2021/03/23 19:44:18;;;;;;;4.15;3.03;;;8.50;67.30;;;;;;5073169;28;20024;-71
2021/03/23 19:46:43;;;;;;;5.45;3.80;;;8.50;67.40;;;;;;5073175;28;20146;-71
2021/03/23 19:49:09;;;;;;;5.47;3.17;;;8.40;67.50;;;;;;5072901;28;20050;-71
2021/03/23 19:51:34;;;;;;;5.53;3.83;;;8.40;67.50;;;;;;5071519;28;20021;-74
2021/03/23 19:54:01;;;;;;;5.10;3.45;;;8.40;67.50;;;;;;5071484;28;20027;-74
2021/03/23 19:56:27;;;;;;;4.63;2.72;;;8.40;67.50;;;;;;5072584;28;20032;-74
2021/03/23 19:58:53;;;;;;;5.53;3.58;;;8.30;67.60;;;;;;5072694;28;20017;-74
2021/03/23 20:01:20;;;;;;;5.30;3.83;;;8.20;67.70;;;;;;5072624;28;20021;-74
2021/03/23 20:03:45;;;;;;;5.78;3.72;;;8.10;67.90;;;;;;5071397;28;20070;-74
2021/03/23 20:06:12;;;;;;;5.60;3.85;;;8.00;68.10;;;;;;5072699;28;20099;-74
2021/03/23 20:08:38;;;;;;;5.47;3.33;;;7.90;68.20;;;;;;5072637;28;20064;-74
2021/03/23 20:11:04;;;;;;;6.03;3.70;;;7.90;68.30;;;;;;5073126;28;20024;-74
2021/03/23 20:13:30;;;;;;;4.47;3.10;;;7.70;68.40;;;;;;5072636;28;20029;-74
2021/03/23 20:15:57;;;;;;;4.63;3.15;;;7.70;68.50;;;;;;5071103;28;20097;-74
2021/03/23 20:18:24;;;;;;;5.82;3.17;;;7.60;68.60;;;;;;5072535;28;20024;-74
2021/03/23 20:20:52;;;;;;;4.63;2.97;;;7.50;68.60;;;;;;5072775;28;20085;-74
2021/03/23 20:23:37;;;;;;;6.18;3.58;;;7.40;68.80;;;;;;5072542;28;20020;-74
2021/03/23 20:26:06;;;;;;;5.65;3.60;;;7.40;68.90;;;;;;5072945;28;20036;-74
2021/03/23 20:28:31;;;;;;;5.07;3.17;;;7.30;69.00;;;;;;5072591;28;20032;-74
2021/03/23 20:30:58;;;;;;;5.45;3.75;;;7.20;69.00;;;;;;5071195;28;20028;-74
2021/03/23 20:33:24;;;;;;;5.20;3.08;;;7.20;69.10;;;;;;5071161;28;20031;-74
2021/03/23 20:35:53;;;;;;;6.70;4.28;;;7.10;69.20;;;;;;5071067;28;20116;-74
2021/03/23 20:38:21;;;;;;;5.63;3.10;;;7.00;69.30;;;;;;5075793;28;20029;-74
2021/03/23 20:40:47;;;;;;;4.63;2.83;;;7.00;69.40;;;;;;5074997;28;20105;-74
2021/03/23 20:43:15;;;;;;;5.53;3.67;;;6.90;69.40;;;;;;5075010;28;20068;-74
2021/03/23 20:45:43;;;;;;;3.93;3.03;;;6.90;69.60;;;;;;5076269;28;20056;-74
2021/03/23 20:48:10;;;;;;;4.68;2.90;;;6.90;69.60;;;;;;5074880;28;20271;-71
2021/03/23 20:50:36;;;;;;;4.85;3.90;;;6.80;69.70;;;;;;5076180;28;20056;-70
2021/03/23 20:53:06;;;;;;;5.45;3.15;;;6.70;69.80;;;;;;5076207;28;20106;-70
2021/03/23 20:55:32;;;;;;;;;;;6.70;69.90;;;;;;5076470;28;20028;-70
2021/03/23 20:57:57;;;;;;;4.93;2.75;;;6.60;69.60;;;;;;5076079;28;19911;-71
2021/03/23 21:00:27;;;;;;;5.28;3.10;;;6.60;70.00;;;;;;5075964;28;20039;-71
2021/03/23 21:02:53;;;;;;;4.63;2.92;;;6.60;70.00;;;;;;5075965;28;20028;-70
2021/03/23 21:05:30;;;;;;;5.05;3.50;;;6.50;70.00;;;;;;5075886;28;20107;-71
2021/03/23 21:07:56;;;;;;;5.35;3.13;;;6.50;70.10;;;;;;5075825;28;20047;-72
2021/03/23 21:10:31;;;;;;;6.40;3.42;;;6.50;70.20;;;;;;5075711;28;20016;-70
2021/03/23 21:12:56;;;;;;;5.72;3.97;;;6.40;70.30;;;;;;5076198;28;20016;-70
2021/03/23 21:15:24;;;;;;;7.45;3.90;;;6.40;70.30;;;;;;5075395;28;20044;-70
2021/03/23 21:17:50;;;;;;;5.88;3.97;;;6.40;70.40;;;;;;5076223;28;20020;-72
2021/03/23 21:20:19;;;;;;;5.18;3.40;;;6.30;70.50;;;;;;5075653;28;20488;-71
2021/03/23 21:22:45;;;;;;;6.55;3.20;;;6.30;70.60;;;;;;5075949;28;20032;-71
2021/03/23 21:25:16;;;;;;;5.88;3.42;;;6.20;70.60;;;;;;5075817;28;20029;-71
2021/03/23 21:27:41;;;;;;;5.72;3.50;;;6.20;70.70;;;;;;5075504;28;20103;-70
2021/03/23 21:30:09;;;;;;;6.28;3.58;;;6.20;70.80;;;;;;5075509;28;20055;-70
2021/03/23 21:32:34;;;;;;;5.57;3.35;;;6.10;70.80;;;;;;5075502;28;20024;-70
2021/03/23 21:35:00;;;;;;;6.90;4.07;;;6.10;70.90;;;;;;5075342;28;20124;-70
2021/03/23 21:37:25;;;;;;;5.82;3.78;;;6.00;70.90;;;;;;5075860;28;20047;-70
2021/03/23 21:39:51;;;;;;;5.70;4.03;;;6.00;71.00;;;;;;5075327;28;20028;-70
2021/03/23 21:42:17;;;;;;;6.22;4.07;;;6.00;71.60;;;;;;5073870;28;20020;-70
2021/03/23 21:44:44;;;;;;;4.07;3.10;;;6.00;71.10;;;;;;5075222;28;20021;-70
2021/03/23 21:47:10;;;;;;;6.45;3.80;;;6.00;71.10;;;;;;5075173;28;20065;-70
2021/03/23 21:49:35;;;;;;;5.55;4.20;;;6.00;71.00;;;;;;5074034;28;20062;-70
2021/03/23 21:52:01;;;;;;;6.07;3.13;;;6.00;71.00;;;;;;5075374;28;20477;-71
2021/03/23 21:54:26;;;;;;;6.05;3.90;;;6.00;71.10;;;;;;5075915;28;20021;-70
2021/03/23 21:56:52;;;;;;;7.60;3.90;;;5.90;71.10;;;;;;5075183;28;20076;-70
2021/03/23 21:59:17;;;;;;;5.80;3.60;;;5.90;71.20;;;;;;5075293;28;20032;-70
2021/03/23 22:01:45;;;;;;;5.05;2.75;;;5.80;71.30;;;;;;5075237;28;20048;-70
2021/03/23 22:04:14;;;;;;;6.28;3.70;;;5.80;71.30;;;;;;5075228;28;20031;-70
2021/03/23 22:06:44;;;;;;;5.47;3.55;;;5.80;71.40;;;;;;5075131;28;20108;-70
2021/03/23 22:09:11;;;;;;;5.78;3.45;;;5.80;71.40;;;;;;5075171;28;20526;-70
2021/03/23 22:11:37;;;;;;;5.53;3.80;;;5.80;71.50;;;;;;5073769;28;20032;-70
2021/03/23 22:14:03;;;;;;;5.05;2.95;;;5.70;71.40;;;;;;5075019;28;20027;-70
2021/03/23 22:16:28;;;;;;;4.70;3.05;;;5.70;71.50;;;;;;5073662;28;20051;-70
2021/03/23 22:18:54;;;;;;;5.93;4.10;;;5.70;71.50;;;;;;5074920;28;20100;-70
2021/03/23 22:21:20;;;;;;;5.47;3.17;;;5.60;71.50;;;;;;5073567;28;20072;-71
2021/03/23 22:23:46;;;;;;;4.95;2.88;;;5.60;71.70;;;;;;5074854;28;20039;-70
2021/03/23 22:26:12;;;;;;;6.07;3.65;;;5.60;71.70;;;;;;5074755;28;20103;-70
2021/03/23 22:28:38;;;;;;;5.20;3.38;;;5.60;71.70;;;;;;5073417;28;20381;-70
2021/03/23 22:31:04;;;;;;;5.10;3.75;;;5.60;71.80;;;;;;5074621;28;20090;-70
2021/03/23 22:33:29;;;;;;;5.07;3.55;;;5.50;71.90;;;;;;5074692;28;20021;-70
2021/03/23 22:35:56;;;;;;;6.65;3.83;;;5.50;72.00;;;;;;5074380;28;20036;-70
2021/03/23 22:38:27;;;;;;;5.30;3.13;;;5.50;72.10;;;;;;5074521;28;20025;-70
2021/03/23 22:40:55;;;;;;;4.97;2.85;;;5.50;72.10;;;;;;5074990;28;20526;-70
2021/03/23 22:43:23;;;;;;;5.65;3.55;;;5.50;72.10;;;;;;5074439;28;20028;-70
2021/03/23 22:45:49;;;;;;;4.55;3.10;;;5.40;72.10;;;;;;5074434;28;20020;-71
2021/03/23 22:48:18;;;;;;;4.90;2.70;;;5.40;72.10;;;;;;5074325;28;20039;-70
2021/03/23 22:50:47;;;;;;;5.20;3.20;;;5.40;72.10;;;;;;5074544;28;20017;-70
2021/03/23 22:53:13;;;;;;;5.78;3.15;;;5.40;72.10;;;;;;5074248;28;20277;-70
2021/03/23 22:55:38;;;;;;;5.00;3.45;;;5.40;72.10;;;;;;5074606;28;20032;-70
2021/03/23 22:58:05;;;;;;;4.57;3.20;;;5.40;72.10;;;;;;5074102;28;20025;-70
2021/03/23 23:00:55;;;;;;;5.20;3.58;;;5.30;72.20;;;;;;5073316;28;20028;-70
2021/03/23 23:03:23;;;;;;;6.95;3.67;;;5.40;72.30;;;;;;5074188;28;20032;-70
2021/03/23 23:05:51;;;;;;;5.65;3.70;;;5.30;72.30;;;;;;5074043;28;20028;-70
2021/03/23 23:08:24;;;;;;;4.68;3.08;;;5.30;73.10;;;;;;5072712;28;20020;-70
2021/03/23 23:11:04;;;;;;;5.43;4.13;;;5.30;72.70;;;;;;5074059;28;20060;-70
2021/03/23 23:13:29;;;;;;;4.93;3.42;;;5.30;72.80;;;;;;5074412;28;20041;-69
2021/03/23 23:15:55;;;;;;;5.22;3.20;;;5.30;72.40;;;;;;5073542;28;20106;-71
2021/03/23 23:18:30;;;;;;;4.35;2.78;;;5.30;72.50;;;;;;5073668;28;20035;-70
2021/03/23 23:20:57;;;;;;;6.68;2.90;;;5.30;72.50;;;;;;5074200;28;20031;-70
2021/03/23 23:23:23;;;;;;;5.05;3.33;;;5.30;72.60;;;;;;5073580;28;20024;-70
2021/03/23 23:25:51;;;;;;;5.20;3.03;;;5.20;72.50;;;;;;5073552;28;20040;-70
2021/03/23 23:28:19;;;;;;;6.82;3.30;;;5.20;72.70;;;;;;5073561;28;20020;-70
2021/03/23 23:30:48;;;;;;;5.22;3.22;;;5.20;72.70;;;;;;5073422;28;20029;-70
2021/03/23 23:33:16;;;;;;;4.18;2.75;;;5.20;72.80;;;;;;5073277;28;20021;-70
2021/03/23 23:35:42;;;;;;;5.38;3.22;;;5.20;72.70;;;;;;5073389;28;20500;-70
2021/03/23 23:38:12;;;;;;;4.45;3.00;;;5.20;72.80;;;;;;5073819;28;20025;-70
2021/03/23 23:40:39;;;;;;;5.55;2.50;;;5.10;72.90;;;;;;5072219;28;20074;-70
2021/03/23 23:43:05;;;;;;;5.53;4.03;;;5.10;72.90;;;;;;5072222;28;20017;-70
2021/03/23 23:45:33;;;;;;;4.80;3.05;;;5.10;72.90;;;;;;5073193;28;20035;-70
2021/03/23 23:47:59;;;;;;;6.13;3.70;;;5.10;73.00;;;;;;5073145;28;20021;-70
2021/03/23 23:50:30;;;;;;;6.60;3.97;;;5.10;73.30;;;;;;5071986;28;20110;-70
2021/03/23 23:52:55;;;;;;;5.07;3.10;;;5.20;73.20;;;;;;5072011;28;20044;-70
2021/03/23 23:55:22;;;;;;;5.45;3.03;;;5.10;73.10;;;;;;5073072;28;20075;-70
2021/03/23 23:57:48;;;;;;;6.13;4.25;;;5.20;73.90;;;;;;5073190;28;20012;-70
